createdAt,value
2019-05-15T05:11:38.290Z,79.17
2019-05-15T05:21:38.586Z,78.84
2019-05-15T05:31:39.136Z,73.21
2019-05-15T05:41:39.153Z,66.36
2019-05-15T05:51:38.723Z,66.32
2019-05-15T06:01:43.250Z,65.82
2019-05-15T06:11:38.115Z,64.79
2019-05-15T06:21:53.667Z,61.07
2019-05-15T06:31:38.830Z,56.70
2019-05-15T06:41:38.994Z,55.26
2019-05-15T06:51:37.923Z,48.03
2019-05-15T07:01:38.549Z,46.36
2019-05-15T07:11:38.791Z,44.28
2019-05-15T07:21:38.839Z,42.79
2019-05-15T07:31:38.410Z,42.16
2019-05-15T07:41:39.168Z,44.05
2019-05-15T07:51:38.164Z,44.01
2019-05-15T08:01:38.616Z,45.10
2019-05-15T08:11:39.105Z,44.14
2019-05-15T08:21:38.603Z,46.16
2019-05-15T08:31:38.849Z,42.56
2019-05-15T08:41:39.078Z,45.46
2019-05-15T08:51:38.368Z,40.60
2019-05-15T09:01:38.314Z,41.11
2019-05-15T09:11:39.089Z,39.97
2019-05-15T09:21:38.803Z,37.50
2019-05-15T09:31:39.155Z,38.55
2019-05-15T09:41:38.310Z,36.42
2019-05-15T09:51:38.617Z,36.98
2019-05-15T10:01:39.454Z,36.43
2019-05-15T10:11:38.407Z,36.87
2019-05-15T10:21:39.970Z,35.59
2019-05-15T10:31:38.927Z,35.88
2019-05-15T10:41:38.844Z,35.65
2019-05-15T10:51:39.585Z,34.29
2019-05-15T11:01:38.822Z,35.70
2019-05-15T11:11:37.706Z,38.00
2019-05-15T11:21:37.685Z,34.85
2019-05-15T11:31:39.341Z,39.03
2019-05-15T11:41:38.688Z,37.75
2019-05-15T11:51:38.359Z,39.75
2019-05-15T12:01:38.278Z,41.22
2019-05-15T12:11:41.113Z,36.42
2019-05-15T12:21:39.605Z,39.78
2019-05-15T12:31:38.963Z,41.77
2019-05-15T13:01:38.876Z,38.52
2019-05-15T13:11:38.022Z,34.91
2019-05-15T13:21:38.062Z,37.78
2019-05-15T13:31:38.380Z,39.89
2019-05-15T13:41:38.575Z,36.06
2019-05-15T13:51:38.556Z,36.63
2019-05-15T14:01:39.403Z,35.32
2019-05-15T14:11:38.973Z,36.32
2019-05-15T14:21:38.041Z,39.38
2019-05-15T14:31:39.409Z,36.75
2019-05-15T14:41:38.194Z,35.59
2019-05-15T14:51:39.224Z,34.38
2019-05-15T15:01:38.420Z,33.96
2019-05-15T15:11:38.556Z,34.73
2019-05-15T15:21:38.425Z,34.41
2019-05-15T15:31:39.034Z,41.94
2019-05-15T15:41:38.973Z,37.26
2019-05-15T15:51:38.046Z,38.12
2019-05-15T16:01:38.975Z,37.08
2019-05-15T16:11:38.607Z,37.83
2019-05-15T16:21:39.368Z,37.85
2019-05-15T16:31:38.396Z,40.50
2019-05-15T16:41:38.280Z,38.71
2019-05-15T16:51:38.267Z,39.33
2019-05-15T17:01:41.260Z,42.77
2019-05-15T17:11:38.375Z,43.00
2019-05-15T17:21:40.652Z,41.04
2019-05-15T17:31:38.092Z,40.00
2019-05-15T17:41:39.086Z,40.63
2019-05-15T17:51:38.350Z,40.74
2019-05-15T18:01:38.260Z,38.61
2019-05-15T18:11:38.395Z,38.24
2019-05-15T18:21:38.567Z,36.29
2019-05-15T18:31:38.168Z,36.63
2019-05-15T18:41:38.301Z,35.24
2019-05-15T18:51:38.576Z,34.95
2019-05-15T19:01:39.357Z,35.26
